createdAt,value
2022-08-02T00:01:04.341Z,46.21
2022-08-02T00:03:33.384Z,45.46
2022-08-02T00:06:02.566Z,46.00
2022-08-02T00:08:31.064Z,45.63
2022-08-02T00:11:01.886Z,45.81
2022-08-02T00:13:31.173Z,46.13
2022-08-02T00:15:59.534Z,46.57
2022-08-02T00:18:29.088Z,46.27
2022-08-02T00:20:57.095Z,46.01
2022-08-02T00:23:25.548Z,45.70
2022-08-02T00:25:59.110Z,46.23
2022-08-02T00:28:28.361Z,47.14
2022-08-02T00:30:59.286Z,47.74
2022-08-02T00:34:26.255Z,47.42
2022-08-02T00:36:17.258Z,48.51
2022-08-02T00:38:46.732Z,48.64
2022-08-02T00:41:17.758Z,47.71
2022-08-02T00:43:49.391Z,47.34
2022-08-02T00:46:18.884Z,47.81
2022-08-02T00:48:49.747Z,47.77
2022-08-02T00:51:18.332Z,47.55
2022-08-02T00:53:47.797Z,47.93
2022-08-02T00:56:16.609Z,47.60
2022-08-02T00:58:45.238Z,47.36
2022-08-02T01:01:15.910Z,46.94
2022-08-02T01:03:45.015Z,46.56
2022-08-02T01:06:16.949Z,47.67
2022-08-02T01:08:45.152Z,47.26
2022-08-02T01:11:13.835Z,47.44
2022-08-02T01:13:43.331Z,48.28
2022-08-02T01:16:16.788Z,48.06
2022-08-02T01:18:49.406Z,48.86
2022-08-02T01:21:27.972Z,49.05
2022-08-02T01:24:25.005Z,49.09
2022-08-02T01:27:34.579Z,49.60
2022-08-02T01:30:04.845Z,48.82
2022-08-02T01:32:43.100Z,48.93
2022-08-02T01:35:23.053Z,48.76
2022-08-02T01:38:01.842Z,49.32
2022-08-02T01:40:32.365Z,49.49
2022-08-02T01:43:01.005Z,50.78
2022-08-02T01:45:32.984Z,50.00
2022-08-02T01:48:03.617Z,50.23
2022-08-02T01:50:38.156Z,50.40
2022-08-02T01:53:11.388Z,50.94
2022-08-02T01:55:58.480Z,50.92
2022-08-02T01:58:34.429Z,51.41
2022-08-02T02:01:07.891Z,52.01
2022-08-02T02:03:41.632Z,51.96
2022-08-02T02:06:13.179Z,52.12
2022-08-02T02:08:44.625Z,52.05
2022-08-02T02:12:06.175Z,53.31
2022-08-02T02:14:05.563Z,53.69
2022-08-02T02:16:35.312Z,53.86
2022-08-02T02:19:04.481Z,52.96
2022-08-02T02:21:35.196Z,52.75
2022-08-02T02:24:05.851Z,52.78
2022-08-02T02:26:38.313Z,52.12
2022-08-02T02:29:11.920Z,52.30
2022-08-02T02:31:45.272Z,52.28
2022-08-02T02:34:27.262Z,53.67
2022-08-02T02:36:57.572Z,53.17
2022-08-02T02:39:28.671Z,52.63
2022-08-02T02:42:01.603Z,52.97
2022-08-02T02:44:31.720Z,53.05
2022-08-02T02:47:00.779Z,53.30
2022-08-02T02:49:32.523Z,52.85
2022-08-02T02:52:03.580Z,52.85
2022-08-02T02:54:35.319Z,54.39
2022-08-02T02:57:06.112Z,55.16
2022-08-02T02:59:49.071Z,54.48
2022-08-02T03:02:19.267Z,53.94
2022-08-02T03:04:57.247Z,53.85
2022-08-02T03:07:27.171Z,54.05
2022-08-02T03:09:55.591Z,53.70
2022-08-02T03:12:32.226Z,53.24
2022-08-02T03:17:43.479Z,53.79
2022-08-02T03:20:15.477Z,54.85
2022-08-02T03:22:45.344Z,54.80
2022-08-02T03:25:21.244Z,54.69
2022-08-02T03:27:50.871Z,54.31
2022-08-02T03:30:20.975Z,53.83
2022-08-02T03:32:57.095Z,53.69
2022-08-02T03:35:32.639Z,54.58
2022-08-02T03:38:02.628Z,55.02
2022-08-02T03:40:32.472Z,54.00
2022-08-02T03:43:04.159Z,54.43
2022-08-02T03:45:32.166Z,54.15
2022-08-02T03:48:00.829Z,54.16
2022-08-02T03:50:29.761Z,54.08
2022-08-02T03:53:00.080Z,54.97
2022-08-02T03:55:28.875Z,55.04
2022-08-02T03:58:00.815Z,54.72
2022-08-02T04:00:28.940Z,54.37
2022-08-02T04:02:57.344Z,54.20
2022-08-02T04:05:25.598Z,55.25
2022-08-02T04:08:35.244Z,54.41
2022-08-02T04:11:02.101Z,53.75
2022-08-02T04:13:36.035Z,53.88
2022-08-02T04:16:15.110Z,53.20
2022-08-02T04:18:51.613Z,53.03
2022-08-02T04:21:22.021Z,53.36
2022-08-02T04:23:51.219Z,54.62
2022-08-02T04:26:28.378Z,54.52
2022-08-02T04:28:57.099Z,53.36
2022-08-02T04:31:25.941Z,53.38
2022-08-02T04:33:54.874Z,53.28
2022-08-02T04:36:31.461Z,53.02
2022-08-02T04:39:01.333Z,53.23
2022-08-02T04:41:44.691Z,52.44
2022-08-02T04:44:14.532Z,51.99
2022-08-02T04:46:43.876Z,51.89
2022-08-02T04:49:13.108Z,52.79
2022-08-02T04:51:46.033Z,52.98
2022-08-02T04:54:14.773Z,52.98
2022-08-02T04:56:43.095Z,52.01
2022-08-02T04:59:13.261Z,53.09
2022-08-02T05:01:42.615Z,52.35
2022-08-02T05:04:12.401Z,51.62
2022-08-02T05:06:42.027Z,51.01
2022-08-02T05:09:11.159Z,51.49
2022-08-02T05:11:40.244Z,52.06
2022-08-02T05:14:09.795Z,51.26
2022-08-02T05:16:37.964Z,50.57
2022-08-02T05:19:06.163Z,50.90
2022-08-02T05:21:34.548Z,50.30
2022-08-02T05:24:05.317Z,49.79
2022-08-02T05:26:42.833Z,49.31
2022-08-02T05:29:15.885Z,49.15
2022-08-02T05:31:46.018Z,48.95
2022-08-02T05:34:14.711Z,48.99
2022-08-02T05:36:43.383Z,48.76
2022-08-02T05:39:18.652Z,47.72
2022-08-02T05:41:50.085Z,47.75
2022-08-02T05:44:19.690Z,47.15
2022-08-02T05:46:47.870Z,47.09
2022-08-02T05:49:15.610Z,47.11
2022-08-02T05:52:10.161Z,46.78
2022-08-02T05:55:04.223Z,46.21
2022-08-02T05:57:48.860Z,46.36
2022-08-02T06:00:17.601Z,45.41
2022-08-02T06:03:26.031Z,45.17
2022-08-02T06:06:13.329Z,45.37
2022-08-02T06:08:54.680Z,44.92
2022-08-02T06:11:24.571Z,45.43
2022-08-02T06:13:55.060Z,44.78
2022-08-02T06:16:32.625Z,44.79
2022-08-02T06:19:02.919Z,44.83
2022-08-02T06:22:33.526Z,44.17
2022-08-02T06:24:20.180Z,43.91
2022-08-02T06:26:55.464Z,43.25
2022-08-02T06:29:24.032Z,43.18
2022-08-02T06:31:53.131Z,42.92
2022-08-02T06:34:21.421Z,42.12
2022-08-02T06:37:20.248Z,41.76
2022-08-02T06:39:50.652Z,41.47
2022-08-02T06:42:26.937Z,40.94
2022-08-02T06:44:58.145Z,40.45
2022-08-02T06:47:31.529Z,40.45
2022-08-02T06:49:59.898Z,40.28
2022-08-02T06:52:31.780Z,40.06
2022-08-02T06:55:01.730Z,40.21
2022-08-02T06:57:31.341Z,40.27
2022-08-02T07:00:02.609Z,39.81
2022-08-02T07:02:31.869Z,39.43
2022-08-02T07:05:07.520Z,39.85
2022-08-02T07:07:38.802Z,39.50
2022-08-02T07:10:07.591Z,39.54
2022-08-02T07:12:36.418Z,39.06
2022-08-02T07:15:06.854Z,38.81
2022-08-02T07:17:35.583Z,38.18
2022-08-02T07:20:04.805Z,37.97
2022-08-02T07:22:33.039Z,37.71
2022-08-02T07:25:01.456Z,37.39
2022-08-02T07:27:29.773Z,37.36
2022-08-02T07:30:00.291Z,36.89
2022-08-02T07:32:30.845Z,36.55
2022-08-02T07:35:02.674Z,36.04
2022-08-02T07:37:54.699Z,35.58
2022-08-02T07:40:29.449Z,35.55
2022-08-02T07:43:03.414Z,36.25
2022-08-02T07:45:36.020Z,35.83
2022-08-02T07:48:14.004Z,35.39
2022-08-02T07:50:42.550Z,35.05
2022-08-02T07:53:11.073Z,34.99
2022-08-02T07:55:40.778Z,34.13
2022-08-02T07:58:12.950Z,33.89
2022-08-02T08:00:44.729Z,33.49
2022-08-02T08:03:13.797Z,33.18
2022-08-02T08:05:44.353Z,32.83
2022-08-02T08:08:17.165Z,32.31
2022-08-02T08:10:47.463Z,32.59
2022-08-02T08:13:16.935Z,32.69
2022-08-02T08:15:52.005Z,33.25
2022-08-02T08:19:13.722Z,32.87
2022-08-02T08:21:44.100Z,32.89
2022-08-02T08:24:24.620Z,32.48
2022-08-02T08:26:56.042Z,31.91
2022-08-02T08:29:26.762Z,32.15
2022-08-02T08:31:55.115Z,32.19
2022-08-02T08:34:24.538Z,31.82
2022-08-02T08:36:55.524Z,31.28
2022-08-02T08:39:23.430Z,31.18
2022-08-02T08:41:52.175Z,30.89
2022-08-02T08:44:21.484Z,30.76
2022-08-02T08:46:50.445Z,30.36
2022-08-02T08:49:26.141Z,30.36
2022-08-02T08:51:56.307Z,30.17
2022-08-02T08:54:26.651Z,30.39
2022-08-02T08:56:58.345Z,30.17
2022-08-02T08:59:27.019Z,29.82
2022-08-02T09:02:00.768Z,29.44
2022-08-02T09:04:55.041Z,29.18
2022-08-02T09:07:24.813Z,28.73
2022-08-02T09:09:53.235Z,28.62
2022-08-02T09:12:22.638Z,27.84
2022-08-02T09:14:51.679Z,27.95
2022-08-02T09:17:21.415Z,27.52
2022-08-02T09:20:06.897Z,26.89
2022-08-02T09:22:36.785Z,26.79
2022-08-02T09:25:06.370Z,26.88
2022-08-02T09:27:37.671Z,26.77
2022-08-02T09:30:11.690Z,26.57
2022-08-02T09:32:50.135Z,26.58
2022-08-02T09:36:06.265Z,25.67
2022-08-02T09:38:28.633Z,25.50
2022-08-02T09:40:58.133Z,25.45
2022-08-02T09:43:57.116Z,25.21
2022-08-02T09:46:42.926Z,25.22
2022-08-02T09:49:16.682Z,24.75
2022-08-02T09:51:53.467Z,24.90
2022-08-02T09:54:26.725Z,24.76
2022-08-02T09:56:57.710Z,24.83
2022-08-02T09:59:32.930Z,24.48
2022-08-02T10:02:04.030Z,24.34
2022-08-02T10:04:34.568Z,23.67
2022-08-02T10:07:26.532Z,23.54
2022-08-02T10:10:00.801Z,23.69
2022-08-02T10:12:29.916Z,24.52
2022-08-02T10:15:01.535Z,24.10
2022-08-02T10:17:35.978Z,23.99
2022-08-02T10:20:07.708Z,24.64
2022-08-02T10:22:38.628Z,24.60
2022-08-02T10:25:08.993Z,24.97
2022-08-02T10:28:02.932Z,25.28
2022-08-02T10:30:28.062Z,25.27
2022-08-02T10:33:08.597Z,25.40
2022-08-02T10:36:22.621Z,25.82
2022-08-02T10:39:04.506Z,26.14
2022-08-02T10:41:48.131Z,25.79
2022-08-02T10:44:40.877Z,25.49
2022-08-02T10:47:17.176Z,25.41
2022-08-02T10:49:50.768Z,24.12
2022-08-02T10:52:23.904Z,23.64
2022-08-02T10:54:58.639Z,23.60
2022-08-02T10:57:37.934Z,23.46
2022-08-02T11:00:24.589Z,23.43
2022-08-02T11:02:58.089Z,23.85
2022-08-02T11:05:42.710Z,23.93
2022-08-02T11:08:22.854Z,24.06
2022-08-02T11:11:01.714Z,24.24
2022-08-02T11:13:30.507Z,24.31
2022-08-02T11:16:07.707Z,24.87
2022-08-02T11:18:51.533Z,24.65
2022-08-02T11:21:26.267Z,24.85
2022-08-02T11:23:57.052Z,24.90
2022-08-02T11:26:31.380Z,24.58
2022-08-02T11:29:01.915Z,24.68
2022-08-02T11:31:40.960Z,25.74
2022-08-02T11:34:11.265Z,25.95
2022-08-02T11:36:59.612Z,26.36
2022-08-02T11:39:27.885Z,25.96
2022-08-02T11:41:58.725Z,26.24
2022-08-02T11:44:28.474Z,26.19
2022-08-02T11:47:02.035Z,25.73
2022-08-02T11:49:31.626Z,25.35
2022-08-02T11:52:06.249Z,25.45
2022-08-02T11:54:37.188Z,25.76
2022-08-02T11:57:19.287Z,25.40
2022-08-02T11:59:53.499Z,25.98
2022-08-02T12:02:31.865Z,26.38
2022-08-02T12:05:09.122Z,26.90
2022-08-02T12:07:45.926Z,27.22
2022-08-02T12:10:25.838Z,26.79
2022-08-02T12:12:59.138Z,26.86
2022-08-02T12:15:31.355Z,26.73
2022-08-02T12:18:19.181Z,26.67
2022-08-02T12:20:47.585Z,26.86
2022-08-02T12:23:15.824Z,27.04
2022-08-02T12:25:43.625Z,27.19
2022-08-02T12:28:17.726Z,27.07
2022-08-02T12:30:54.181Z,26.59
2022-08-02T12:33:23.367Z,26.47
2022-08-02T12:35:52.028Z,26.52
2022-08-02T12:38:20.829Z,26.01
2022-08-02T12:40:49.687Z,25.96
2022-08-02T12:43:20.931Z,25.29
2022-08-02T12:45:49.309Z,24.89
2022-08-02T12:48:36.762Z,24.81
2022-08-02T12:51:51.214Z,24.74
2022-08-02T12:54:36.094Z,24.58
2022-08-02T12:57:12.743Z,24.73
2022-08-02T12:59:45.238Z,24.17
2022-08-02T13:02:14.840Z,24.30
2022-08-02T13:04:50.108Z,24.59
2022-08-02T13:07:20.298Z,24.43
2022-08-02T13:09:50.392Z,24.38
2022-08-02T13:12:18.823Z,24.64
2022-08-02T13:14:47.057Z,24.53
2022-08-02T13:17:15.379Z,24.86
2022-08-02T13:19:43.595Z,24.07
2022-08-02T13:22:11.827Z,24.14
2022-08-02T13:24:57.144Z,24.01
2022-08-02T13:31:34.473Z,22.93
2022-08-02T13:38:50.366Z,21.80
2022-08-02T13:42:31.718Z,20.73
2022-08-02T13:53:59.205Z,19.82
2022-08-02T13:57:17.672Z,20.23
2022-08-02T14:45:05.831Z,19.47
2022-08-02T14:47:49.486Z,19.56
2022-08-02T14:50:34.161Z,19.82
2022-08-02T15:05:42.493Z,19.67
2022-08-02T15:08:17.102Z,19.35
2022-08-02T15:11:14.845Z,19.48
2022-08-02T15:13:48.564Z,19.84
2022-08-02T15:16:41.682Z,19.64
2022-08-02T15:19:15.787Z,20.09
2022-08-02T15:21:56.869Z,20.04
2022-08-02T15:24:29.341Z,19.64
2022-08-02T15:27:00.239Z,19.69
2022-08-02T15:29:38.636Z,19.56
2022-08-02T15:32:08.313Z,19.75
2022-08-02T15:34:40.391Z,20.02
2022-08-02T15:37:13.672Z,20.11
2022-08-02T15:39:50.364Z,20.22
2022-08-02T15:42:21.572Z,20.16
2022-08-02T15:45:03.981Z,20.17
2022-08-02T15:47:38.484Z,19.63
2022-08-02T15:50:11.386Z,19.83
2022-08-02T15:52:44.421Z,19.57
2022-08-02T15:55:19.493Z,20.20
2022-08-02T15:57:48.501Z,19.78
2022-08-02T16:00:24.012Z,19.95
2022-08-02T16:02:53.588Z,19.97
2022-08-02T16:05:23.510Z,19.87
2022-08-02T16:07:53.934Z,19.86
2022-08-02T16:10:26.904Z,19.84
2022-08-02T16:13:20.188Z,19.87
2022-08-02T16:15:50.901Z,20.17
2022-08-02T16:18:20.538Z,20.13
2022-08-02T16:20:49.970Z,20.15
2022-08-02T16:23:21.351Z,20.47
2022-08-02T16:26:10.663Z,20.28
2022-08-02T16:28:41.114Z,20.31
2022-08-02T16:31:11.777Z,20.44
2022-08-02T16:33:42.266Z,19.97
2022-08-02T16:36:13.377Z,20.73
2022-08-02T16:38:49.464Z,20.71
2022-08-02T16:41:23.674Z,20.77
2022-08-02T16:44:17.404Z,20.72
2022-08-02T16:46:47.217Z,20.83
2022-08-02T16:50:07.392Z,21.09
2022-08-02T16:52:12.550Z,20.88
2022-08-02T16:54:45.335Z,20.75
2022-08-02T16:57:23.959Z,21.30
2022-08-02T17:00:16.227Z,21.12
2022-08-02T17:02:47.500Z,21.13
2022-08-02T17:05:17.278Z,21.23
2022-08-02T17:08:07.529Z,21.45
2022-08-02T17:10:43.008Z,21.52
2022-08-02T17:13:13.419Z,21.60
2022-08-02T17:16:15.753Z,22.51
2022-08-02T17:18:37.443Z,22.40
2022-08-02T17:21:14.534Z,22.51
2022-08-02T17:24:07.839Z,22.67
2022-08-02T17:26:37.915Z,22.55
2022-08-02T17:29:16.042Z,22.84
2022-08-02T17:32:02.419Z,23.02
2022-08-02T17:34:36.134Z,23.03
2022-08-02T17:37:05.832Z,23.20
2022-08-02T17:39:44.381Z,23.43
2022-08-02T17:42:23.125Z,23.55
2022-08-02T17:44:53.720Z,23.25
2022-08-02T17:47:23.433Z,23.41
2022-08-02T17:49:59.711Z,23.34
2022-08-02T17:52:51.867Z,23.17
2022-08-02T17:55:18.252Z,22.78
2022-08-02T17:57:57.194Z,22.64
2022-08-02T18:00:38.008Z,22.78
2022-08-02T18:03:08.060Z,22.62
2022-08-02T18:05:40.135Z,22.89
2022-08-02T18:08:23.640Z,22.84
2022-08-02T18:10:54.497Z,23.01
2022-08-02T18:13:23.715Z,23.33
2022-08-02T18:15:57.183Z,23.06
2022-08-02T18:18:29.642Z,23.21
2022-08-02T18:21:15.571Z,23.08
2022-08-02T18:23:49.733Z,22.51
2022-08-02T18:26:28.538Z,22.41
2022-08-02T18:28:58.205Z,22.21
2022-08-02T18:31:27.248Z,22.21
2022-08-02T18:34:01.992Z,22.83
2022-08-02T18:36:32.419Z,22.74
2022-08-02T18:39:08.209Z,22.96
2022-08-02T18:41:38.156Z,22.86
2022-08-02T18:44:07.392Z,22.70
2022-08-02T18:46:35.753Z,22.79
2022-08-02T18:49:14.753Z,22.89
2022-08-02T18:51:54.357Z,23.52
2022-08-02T18:54:30.699Z,23.24
2022-08-02T18:56:59.501Z,23.33
2022-08-02T18:59:29.248Z,23.59
2022-08-02T19:02:06.216Z,24.49
2022-08-02T19:04:34.438Z,24.67
2022-08-02T19:07:07.397Z,25.27
2022-08-02T19:09:40.017Z,25.28
2022-08-02T19:12:28.374Z,25.52
2022-08-02T19:14:59.030Z,25.35
2022-08-02T19:17:55.166Z,25.45
2022-08-02T19:20:19.364Z,26.14
2022-08-02T19:22:53.751Z,25.88
2022-08-02T19:25:27.931Z,26.16
2022-08-02T19:27:57.138Z,26.70
2022-08-02T19:30:27.755Z,27.13
2022-08-02T19:32:59.647Z,27.83
2022-08-02T19:35:34.290Z,28.09
2022-08-02T19:38:10.317Z,28.77
2022-08-02T19:40:43.831Z,29.12
2022-08-02T19:44:27.374Z,28.49
2022-08-02T19:46:01.978Z,28.38
2022-08-02T19:48:30.054Z,29.21
2022-08-02T19:51:01.520Z,28.41
2022-08-02T19:53:47.428Z,28.78
2022-08-02T19:56:20.501Z,28.99
2022-08-02T19:58:52.023Z,29.09
2022-08-02T20:01:27.007Z,29.58
2022-08-02T20:04:13.732Z,29.93
2022-08-02T20:06:45.491Z,30.52
2022-08-02T20:09:16.624Z,30.66
2022-08-02T20:11:46.469Z,30.86
2022-08-02T20:14:26.643Z,30.92
2022-08-02T20:16:57.663Z,31.06
2022-08-02T20:19:29.040Z,31.51
2022-08-02T20:21:59.989Z,31.76
2022-08-02T20:24:31.788Z,31.60
2022-08-02T20:27:02.941Z,31.73
2022-08-02T20:29:45.185Z,31.37
2022-08-02T20:32:23.283Z,31.23
2022-08-02T20:34:53.515Z,31.06
2022-08-02T20:38:00.339Z,31.08
2022-08-02T20:40:16.802Z,31.33
2022-08-02T20:42:47.696Z,31.49
2022-08-02T20:45:18.617Z,31.24
2022-08-02T20:47:50.755Z,31.68
2022-08-02T20:50:42.786Z,31.23
2022-08-02T20:53:24.000Z,31.01
2022-08-02T20:55:56.092Z,31.71
2022-08-02T20:58:26.812Z,31.79
2022-08-02T21:00:59.890Z,31.90
2022-08-02T21:03:39.452Z,32.32
2022-08-02T21:06:15.123Z,31.78
2022-08-02T21:11:34.016Z,31.92
2022-08-02T21:14:07.865Z,33.66
2022-08-02T21:16:37.972Z,34.18
2022-08-02T21:19:09.658Z,33.92
2022-08-02T21:21:54.878Z,33.71
2022-08-02T21:24:24.835Z,33.74
2022-08-02T21:26:52.847Z,33.53
2022-08-02T21:29:24.622Z,34.46
2022-08-02T21:31:53.956Z,35.71
2022-08-02T21:34:27.558Z,36.21
2022-08-02T21:36:59.878Z,35.91
2022-08-02T21:39:38.023Z,36.22
2022-08-02T21:42:07.313Z,36.21
2022-08-02T21:44:37.128Z,35.31
2022-08-02T21:47:11.099Z,35.76
2022-08-02T21:52:27.795Z,36.35
2022-08-02T21:54:56.907Z,37.57
2022-08-02T21:57:26.323Z,37.44
2022-08-02T22:00:06.476Z,38.21
2022-08-02T22:02:36.513Z,39.46
2022-08-02T22:05:06.652Z,38.80
2022-08-02T22:07:42.038Z,40.46
2022-08-02T22:10:17.978Z,40.29
2022-08-02T22:12:48.850Z,39.37
2022-08-02T22:15:25.888Z,39.17
2022-08-02T22:18:07.274Z,39.33
2022-08-02T22:20:44.965Z,39.90
2022-08-02T22:23:22.715Z,39.37
2022-08-02T22:26:08.285Z,39.18
2022-08-02T22:28:51.111Z,39.17
2022-08-02T22:31:39.604Z,39.67
2022-08-02T22:34:38.309Z,39.73
2022-08-02T22:37:02.660Z,39.72
2022-08-02T22:39:42.172Z,40.26
2022-08-02T22:42:30.022Z,39.88
2022-08-02T22:45:00.104Z,40.50
2022-08-02T22:47:38.790Z,40.40
2022-08-02T22:50:21.411Z,39.61
2022-08-02T22:52:52.908Z,39.81
2022-08-02T22:55:23.891Z,40.31
2022-08-02T22:58:03.509Z,39.70
2022-08-02T22:59:03.541Z,35.52
2022-08-02T22:59:12.946Z,31.89
2022-08-02T23:00:36.942Z,39.76
2022-08-02T23:03:07.184Z,39.78
2022-08-02T23:05:37.178Z,41.18
2022-08-02T23:08:11.023Z,41.30
2022-08-02T23:10:44.274Z,41.64
2022-08-02T23:13:18.742Z,41.11
2022-08-02T23:16:08.913Z,41.42
2022-08-02T23:18:58.625Z,42.15
2022-08-02T23:22:00.738Z,42.12
2022-08-02T23:24:27.700Z,41.38
2022-08-02T23:26:57.115Z,42.16
2022-08-02T23:29:27.807Z,41.81
2022-08-02T23:31:57.495Z,41.89
2022-08-02T23:34:30.498Z,41.86
2022-08-02T23:37:05.614Z,42.16
2022-08-02T23:39:40.598Z,41.95
2022-08-02T23:42:11.923Z,42.61
2022-08-02T23:44:42.826Z,42.90
2022-08-02T23:47:12.630Z,43.73
2022-08-02T23:49:43.239Z,43.24
2022-08-02T23:52:14.270Z,44.19
2022-08-02T23:54:46.488Z,44.46
2022-08-02T23:57:20.548Z,44.28
2022-08-02T23:59:52.628Z,44.92
